Time,TemperatureF,DewpointF,PressureIn,WindDirection,WindDirectionDegrees,WindSpeedMPH,WindSpeedGustMPH,Humidity,HourlyPrecipIn,Conditions,Clouds,dailyrainin,SolarRadiationWatts/m^2,SoftwareType,DateUTC
2013-04-20 00:02:00,27.0,19.0,-100.00,WNW,300,12.0,17.0,72,0.00,,,0.01,0.000000,,2013-04-20 05:02:00,
2013-04-20 00:11:00,25.0,19.0,-100.00,NW,312,10.0,17.0,77,0.00,,,0.01,0.000000,,2013-04-20 05:11:00,
2013-04-20 00:32:00,25.0,19.0,-100.00,NW,312,10.0,17.0,77,0.00,,,0.01,0.000000,,2013-04-20 05:32:00,
2013-04-20 00:43:00,25.0,19.0,-100.00,NW,312,10.0,17.0,77,0.00,,,0.01,0.000000,,2013-04-20 05:43:00,
2013-04-20 00:52:00,25.0,19.0,-100.00,NW,312,10.0,17.0,77,0.00,,,0.01,0.000000,,2013-04-20 05:52:00,
2013-04-20 01:02:00,25.0,19.0,-100.00,NW,312,10.0,17.0,77,0.00,,,0.01,0.000000,,2013-04-20 06:02:00,
2013-04-20 01:11:00,22.0,17.0,-100.00,NW,311,9.0,13.0,82,0.00,,,0.01,0.000000,,2013-04-20 06:11:00,
2013-04-20 01:42:00,22.0,17.0,-100.00,NW,311,9.0,13.0,82,0.00,,,0.01,0.000000,,2013-04-20 06:42:00,
2013-04-20 01:52:00,22.0,17.0,-100.00,NW,311,9.0,13.0,82,0.00,,,0.01,0.000000,,2013-04-20 06:52:00,
2013-04-20 02:01:00,22.0,17.0,-100.00,NW,311,9.0,13.0,82,0.00,,,0.01,0.000000,,2013-04-20 07:01:00,
2013-04-20 02:11:00,20.0,16.0,-100.00,NW,310,8.0,10.0,83,0.00,,,-99.99,0.000000,,2013-04-20 07:11:00,
2013-04-20 02:42:00,20.0,16.0,-100.00,NW,310,8.0,10.0,83,0.00,,,-99.99,0.000000,,2013-04-20 07:42:00,
2013-04-20 02:52:00,20.0,16.0,-100.00,NW,310,8.0,10.0,83,0.00,,,-99.99,0.000000,,2013-04-20 07:52:00,
2013-04-20 03:02:00,20.0,16.0,-100.00,NW,310,8.0,10.0,83,0.00,,,-99.99,0.000000,,2013-04-20 08:02:00,
2013-04-20 03:11:00,21.0,16.0,-100.00,NW,304,9.0,10.0,82,0.00,,,0.01,0.000000,,2013-04-20 08:11:00,
2013-04-20 03:42:00,21.0,16.0,-100.00,NW,304,9.0,10.0,82,0.00,,,0.01,0.000000,,2013-04-20 08:42:00,
2013-04-20 03:52:00,21.0,16.0,-100.00,NW,304,9.0,10.0,82,0.00,,,0.01,0.000000,,2013-04-20 08:52:00,
2013-04-20 04:01:00,21.0,16.0,-100.00,NW,304,9.0,10.0,82,0.00,,,0.01,0.000000,,2013-04-20 09:01:00,
2013-04-20 04:11:00,19.0,14.0,-100.00,WNW,300,8.0,10.0,82,0.00,,,0.01,0.000000,,2013-04-20 09:11:00,
2013-04-20 04:33:00,19.0,14.0,-100.00,WNW,300,8.0,10.0,82,0.00,,,0.01,0.000000,,2013-04-20 09:33:00,
2013-04-20 04:43:00,19.0,14.0,-100.00,WNW,300,8.0,10.0,82,0.00,,,0.01,0.000000,,2013-04-20 09:43:00,
2013-04-20 04:53:00,19.0,14.0,-100.00,WNW,300,8.0,10.0,82,0.00,,,0.01,0.000000,,2013-04-20 09:53:00,
2013-04-20 05:03:00,19.0,14.0,-100.00,WNW,300,8.0,10.0,82,0.00,,,0.01,0.000000,,2013-04-20 10:03:00,
2013-04-20 05:11:00,18.0,13.0,-100.00,WNW,291,6.0,10.0,81,0.00,,,0.01,0.000000,,2013-04-20 10:11:00,
2013-04-20 05:42:00,18.0,13.0,-100.00,WNW,291,6.0,10.0,81,0.00,,,0.01,0.000000,,2013-04-20 10:42:00,
2013-04-20 05:53:00,18.0,13.0,-100.00,WNW,291,6.0,10.0,81,0.00,,,0.01,0.000000,,2013-04-20 10:53:00,
2013-04-20 06:02:00,18.0,13.0,-100.00,WNW,291,6.0,10.0,81,0.00,,,0.01,0.000000,,2013-04-20 11:02:00,
2013-04-20 06:11:00,16.0,12.0,-100.00,NW,311,6.0,9.0,83,0.00,,,0.01,0.000000,,2013-04-20 11:11:00,
2013-04-20 06:42:00,16.0,12.0,-100.00,NW,311,6.0,9.0,83,0.00,,,0.01,0.000000,,2013-04-20 11:42:00,
2013-04-20 06:53:00,16.0,12.0,-100.00,NW,311,6.0,9.0,83,0.00,,,0.01,0.000000,,2013-04-20 11:53:00,
2013-04-20 07:02:00,16.0,12.0,-100.00,NW,311,6.0,9.0,83,0.00,,,0.01,0.000000,,2013-04-20 12:02:00,
2013-04-20 07:11:00,18.0,13.0,-100.00,NW,310,5.0,7.0,79,0.00,,,0.01,70.000000,,2013-04-20 12:11:00,
2013-04-20 07:32:00,18.0,13.0,-100.00,NW,310,5.0,7.0,79,0.00,,,0.01,70.000000,,2013-04-20 12:32:00,
2013-04-20 07:42:00,18.0,13.0,-100.00,NW,310,5.0,7.0,79,0.00,,,0.01,70.000000,,2013-04-20 12:42:00,
2013-04-20 07:52:00,18.0,13.0,-100.00,NW,310,5.0,7.0,79,0.00,,,0.01,70.000000,,2013-04-20 12:52:00,
2013-04-20 08:02:00,18.0,13.0,-100.00,NW,310,5.0,7.0,79,0.00,,,0.01,70.000000,,2013-04-20 13:02:00,
2013-04-20 08:11:00,22.0,14.0,-100.00,NW,307,6.0,7.0,72,0.00,,,0.01,325.000000,,2013-04-20 13:11:00,
2013-04-20 08:32:00,22.0,14.0,-100.00,NW,307,6.0,7.0,72,0.00,,,0.01,325.000000,,2013-04-20 13:32:00,
2013-04-20 08:42:00,22.0,14.0,-100.00,NW,307,6.0,7.0,72,0.00,,,0.01,325.000000,,2013-04-20 13:42:00,
2013-04-20 08:52:00,22.0,14.0,-100.00,NW,307,6.0,7.0,72,0.00,,,0.01,325.000000,,2013-04-20 13:52:00,
2013-04-20 09:02:00,22.0,14.0,-100.00,NW,307,6.0,7.0,72,0.00,,,0.01,325.000000,,2013-04-20 14:02:00,
2013-04-20 09:11:00,27.0,17.0,-100.00,NW,315,6.0,8.0,66,0.00,,,0.01,596.000000,,2013-04-20 14:11:00,
2013-04-20 09:32:00,27.0,17.0,-100.00,NW,315,6.0,8.0,66,0.00,,,0.01,596.000000,,2013-04-20 14:32:00,
2013-04-20 09:42:00,27.0,17.0,-100.00,NW,315,6.0,8.0,66,0.00,,,0.01,596.000000,,2013-04-20 14:42:00,
2013-04-20 09:52:00,27.0,17.0,-100.00,NW,315,6.0,8.0,66,0.00,,,0.01,596.000000,,2013-04-20 14:52:00,
2013-04-20 10:01:00,27.0,17.0,-100.00,NW,315,6.0,8.0,66,0.00,,,0.01,596.000000,,2013-04-20 15:01:00,
2013-04-20 10:11:00,35.0,20.0,-100.00,West,275,3.0,7.0,53,0.00,,,0.00,822.000000,,2013-04-20 15:11:00,
2013-04-20 10:34:00,35.0,20.0,-100.00,West,275,3.0,7.0,53,0.00,,,0.00,822.000000,,2013-04-20 15:34:00,
2013-04-20 10:43:00,35.0,20.0,-100.00,West,275,3.0,7.0,53,0.00,,,0.00,822.000000,,2013-04-20 15:43:00,
2013-04-20 10:53:00,35.0,20.0,-100.00,West,275,3.0,7.0,53,0.00,,,0.00,822.000000,,2013-04-20 15:53:00,
2013-04-20 11:03:00,35.0,20.0,-100.00,West,275,3.0,7.0,53,0.00,,,0.00,822.000000,,2013-04-20 16:03:00,
2013-04-20 11:11:00,41.0,18.0,-100.00,East,87,2.0,5.0,39,0.00,,,0.00,982.000000,,2013-04-20 16:11:00,
2013-04-20 11:42:00,41.0,18.0,-100.00,East,87,2.0,5.0,39,0.00,,,0.00,982.000000,,2013-04-20 16:42:00,
2013-04-20 11:53:00,41.0,18.0,-100.00,East,87,2.0,5.0,39,0.00,,,0.00,982.000000,,2013-04-20 16:53:00,
2013-04-20 12:02:00,41.0,18.0,-100.00,East,87,2.0,5.0,39,0.00,,,0.00,982.000000,,2013-04-20 17:02:00,
2013-04-20 12:11:00,40.0,17.0,-100.00,ESE,119,5.0,7.0,39,0.00,,,0.00,1089.000000,,2013-04-20 17:11:00,
2013-04-20 12:33:00,40.0,17.0,-100.00,ESE,119,5.0,7.0,39,0.00,,,0.00,1089.000000,,2013-04-20 17:33:00,
2013-04-20 12:42:00,40.0,17.0,-100.00,ESE,119,5.0,7.0,39,0.00,,,0.00,1089.000000,,2013-04-20 17:42:00,
2013-04-20 12:52:00,40.0,17.0,-100.00,ESE,119,5.0,7.0,39,0.00,,,0.00,1089.000000,,2013-04-20 17:52:00,
2013-04-20 13:02:00,40.0,17.0,-100.00,ESE,119,5.0,7.0,39,0.00,,,0.00,1089.000000,,2013-04-20 18:02:00,
2013-04-20 13:11:00,39.0,14.0,-100.00,SSE,150,7.0,10.0,35,0.00,,,0.00,1144.000000,,2013-04-20 18:11:00,
2013-04-20 13:32:00,39.0,14.0,-100.00,SSE,150,7.0,10.0,35,0.00,,,0.00,1144.000000,,2013-04-20 18:32:00,
2013-04-20 13:42:00,39.0,14.0,-100.00,SSE,150,7.0,10.0,35,0.00,,,0.00,1144.000000,,2013-04-20 18:42:00,
2013-04-20 13:52:00,39.0,14.0,-100.00,SSE,150,7.0,10.0,35,0.00,,,0.00,1144.000000,,2013-04-20 18:52:00,
2013-04-20 14:02:00,39.0,14.0,-100.00,SSE,150,7.0,10.0,35,0.00,,,0.00,1144.000000,,2013-04-20 19:02:00,
2013-04-20 14:11:00,37.0,12.0,-100.00,South,178,10.0,15.0,35,0.00,,,0.00,1110.000000,,2013-04-20 19:11:00,
2013-04-20 14:32:00,37.0,12.0,-100.00,South,178,10.0,15.0,35,0.00,,,0.00,1110.000000,,2013-04-20 19:32:00,
2013-04-20 14:42:00,37.0,12.0,-100.00,South,178,10.0,15.0,35,0.00,,,0.00,1110.000000,,2013-04-20 19:42:00,
2013-04-20 14:52:00,37.0,12.0,-100.00,South,178,10.0,15.0,35,0.00,,,0.00,1110.000000,,2013-04-20 19:52:00,
2013-04-20 15:02:00,37.0,12.0,-100.00,South,178,10.0,15.0,35,0.00,,,0.00,1110.000000,,2013-04-20 20:02:00,
2013-04-20 15:11:00,38.0,18.0,-100.00,South,175,10.0,15.0,44,0.00,,,0.00,1027.000000,,2013-04-20 20:11:00,
2013-04-20 15:32:00,38.0,18.0,-100.00,South,175,10.0,15.0,44,0.00,,,0.00,1027.000000,,2013-04-20 20:32:00,
2013-04-20 15:42:00,38.0,18.0,-100.00,South,175,10.0,15.0,44,0.00,,,0.00,1027.000000,,2013-04-20 20:42:00,
2013-04-20 15:52:00,38.0,18.0,-100.00,South,175,10.0,15.0,44,0.00,,,0.00,1027.000000,,2013-04-20 20:52:00,
2013-04-20 16:01:00,38.0,18.0,-100.00,South,175,10.0,15.0,44,0.00,,,0.00,1027.000000,,2013-04-20 21:01:00,
2013-04-20 16:11:00,37.0,14.0,-100.00,SSE,166,10.0,15.0,38,0.00,,,-99.99,813.000000,,2013-04-20 21:11:00,
2013-04-20 16:43:00,37.0,14.0,-100.00,SSE,166,10.0,15.0,38,0.00,,,-99.99,813.000000,,2013-04-20 21:43:00,
2013-04-20 16:53:00,37.0,14.0,-100.00,SSE,166,10.0,15.0,38,0.00,,,-99.99,813.000000,,2013-04-20 21:53:00,
2013-04-20 17:02:00,37.0,14.0,-100.00,SSE,166,10.0,15.0,38,0.00,,,-99.99,813.000000,,2013-04-20 22:02:00,
2013-04-20 17:11:00,38.0,15.0,-100.00,South,171,9.0,13.0,39,0.00,,,0.00,635.000000,,2013-04-20 22:11:00,
2013-04-20 17:33:00,38.0,15.0,-100.00,South,171,9.0,13.0,39,0.00,,,0.00,635.000000,,2013-04-20 22:33:00,
2013-04-20 17:42:00,38.0,15.0,-100.00,South,171,9.0,13.0,39,0.00,,,0.00,635.000000,,2013-04-20 22:42:00,
2013-04-20 17:53:00,38.0,15.0,-100.00,South,171,9.0,13.0,39,0.00,,,0.00,635.000000,,2013-04-20 22:53:00,
2013-04-20 18:02:00,38.0,15.0,-100.00,South,171,9.0,13.0,39,0.00,,,0.00,635.000000,,2013-04-20 23:02:00,
2013-04-20 18:11:00,36.0,12.0,-100.00,SE,143,10.0,13.0,37,0.00,,,0.00,404.000000,,2013-04-20 23:11:00,
2013-04-20 18:32:00,36.0,12.0,-100.00,SE,143,10.0,13.0,37,0.00,,,0.00,404.000000,,2013-04-20 23:32:00,
2013-04-20 18:42:00,36.0,12.0,-100.00,SE,143,10.0,13.0,37,0.00,,,0.00,404.000000,,2013-04-20 23:42:00,
2013-04-20 18:53:00,36.0,12.0,-100.00,SE,143,10.0,13.0,37,0.00,,,0.00,404.000000,,2013-04-20 23:53:00,
2013-04-20 19:01:00,36.0,12.0,-100.00,SE,143,10.0,13.0,37,0.00,,,0.00,404.000000,,2013-04-21 00:01:00,
2013-04-20 20:11:00,31.0,18.0,-100.00,ESE,107,5.0,9.0,58,-99.99,,,0.00,42.000000,,2013-04-21 01:11:00,
2013-04-20 20:32:00,31.0,18.0,-100.00,ESE,107,5.0,9.0,58,-99.99,,,0.00,42.000000,,2013-04-21 01:32:00,
2013-04-20 20:42:00,31.0,18.0,-100.00,ESE,107,5.0,9.0,58,-99.99,,,0.00,42.000000,,2013-04-21 01:42:00,
2013-04-20 20:52:00,31.0,18.0,-100.00,ESE,107,5.0,9.0,58,-99.99,,,0.00,42.000000,,2013-04-21 01:52:00,
2013-04-20 21:02:00,31.0,18.0,-100.00,ESE,107,5.0,9.0,58,-99.99,,,0.00,42.000000,,2013-04-21 02:02:00,
2013-04-20 21:11:00,30.0,18.0,-100.00,East,86,4.0,6.0,61,0.00,,,0.00,0.000000,,2013-04-21 02:11:00,
2013-04-20 21:32:00,30.0,18.0,-100.00,East,86,4.0,6.0,61,0.00,,,0.00,0.000000,,2013-04-21 02:32:00,
2013-04-20 21:42:00,30.0,18.0,-100.00,East,86,4.0,6.0,61,0.00,,,0.00,0.000000,,2013-04-21 02:42:00,
2013-04-20 21:52:00,30.0,18.0,-100.00,East,86,4.0,6.0,61,0.00,,,0.00,0.000000,,2013-04-21 02:52:00,
2013-04-20 22:01:00,30.0,18.0,-100.00,East,86,4.0,6.0,61,0.00,,,0.00,0.000000,,2013-04-21 03:01:00,
2013-04-20 22:11:00,30.0,20.0,-100.00,ESE,104,5.0,7.0,66,0.00,,,0.00,0.000000,,2013-04-21 03:11:00,
2013-04-20 22:33:00,30.0,20.0,-100.00,ESE,104,5.0,7.0,66,0.00,,,0.00,0.000000,,2013-04-21 03:33:00,
2013-04-20 22:42:00,30.0,20.0,-100.00,ESE,104,5.0,7.0,66,0.00,,,0.00,0.000000,,2013-04-21 03:42:00,
2013-04-20 22:52:00,30.0,20.0,-100.00,ESE,104,5.0,7.0,66,0.00,,,0.00,0.000000,,2013-04-21 03:52:00,
2013-04-20 23:02:00,30.0,20.0,-100.00,ESE,104,5.0,7.0,66,0.00,,,0.00,0.000000,,2013-04-21 04:02:00,
2013-04-20 23:11:00,32.0,19.0,-100.00,SSE,165,8.0,12.0,59,0.00,,,0.00,0.000000,,2013-04-21 04:11:00,
2013-04-20 23:43:00,32.0,19.0,-100.00,SSE,165,8.0,12.0,59,0.00,,,0.00,0.000000,,2013-04-21 04:43:00,
2013-04-20 23:53:00,32.0,19.0,-100.00,SSE,165,8.0,12.0,59,0.00,,,0.00,0.000000,,2013-04-21 04:53:00,